This is the latest recevied weather packets stored in our database for station/object OE9FWV-10. If no packets are shown the sender has not sent any weather packets the latest 10 day(s).
| Time | Temp. | Humidity | Pressure | Rain* | Wind** | Luminosity | Snow |
|---|---|---|---|---|---|---|---|
| 1787585862 | 31.11° C | 24% | 1017 hPa | - | - | - | - |
| 1787584961 | 32.22° C | 23% | 1017.1 hPa | - | - | - | - |
| 1787584060 | 32.78° C | 22% | 1017.3 hPa | - | - | - | - |
| 1787583159 | 37.22° C | 18% | 1017.6 hPa | - | - | - | - |
| 1787582258 | 38.33° C | 18% | 1017.9 hPa | - | - | - | - |
| 1787581358 | 38.33° C | 17% | 1018.3 hPa | - | - | - | - |
| 1787580458 | 39.44° C | 17% | 1018.4 hPa | - | - | - | - |
| 1787579557 | 40° C | 16% | 1018.5 hPa | - | - | - | - |
| 1787578657 | 41.11° C | 17% | 1018.8 hPa | - | - | - | - |
| 1787577756 | 37.22° C | 19% | 1019.2 hPa | - | - | - | - |
| 1787576856 | 36.67° C | 19% | 1019.4 hPa | - | - | - | - |
| 1787575955 | 39.44° C | 17% | 1019.6 hPa | - | - | - | - |
| 1787575055 | 40° C | 17% | 1019.8 hPa | - | - | - | - |
| 1787574155 | 39.44° C | 18% | 1020 hPa | - | - | - | - |
| 1787573254 | 36.67° C | 20% | 1020.3 hPa | - | - | - | - |
| 1787572354 | 35° C | 21% | 1020.5 hPa | - | - | - | - |
| 1787571454 | 37.78° C | 20% | 1020.6 hPa | - | - | - | - |
| 1787570553 | 37.78° C | 20% | 1020.8 hPa | - | - | - | - |
| 1787569652 | 33.89° C | 23% | 1021 hPa | - | - | - | - |
| 1787568752 | 35° C | 23% | 1021.2 hPa | - | - | - | - |
| 1787567851 | 32.22° C | 25% | 1021.4 hPa | - | - | - | - |
| 1787566950 | 31.67° C | 28% | 1021.7 hPa | - | - | - | - |
| 1787566050 | 28.33° C | 30% | 1022 hPa | - | - | - | - |
| 1787565149 | 28.33° C | 30% | 1022 hPa | - | - | - | - |
| 1787564248 | 27.78° C | 30% | 1022.1 hPa | - | - | - | - |
* Rain since midnight (hover to see other rain measurements)
** Current wind speed in m/s (hover to see current wind gust speed)